sensor_id;sensor_type;location;lat;lon;timestamp;P1;durP1;ratioP1;P2;durP2;ratioP2
45224;SDS011;30963;48.696;8.764;2022-08-19T00:01:54;18.65;;;16.70;;
45224;SDS011;30963;48.696;8.764;2022-08-19T00:04:22;17.83;;;16.23;;
45224;SDS011;30963;48.696;8.764;2022-08-19T00:06:49;18.52;;;16.73;;
45224;SDS011;30963;48.696;8.764;2022-08-19T00:09:16;17.42;;;15.82;;
45224;SDS011;30963;48.696;8.764;2022-08-19T00:11:44;18.27;;;16.48;;
45224;SDS011;30963;48.696;8.764;2022-08-19T00:14:11;19.55;;;17.65;;
45224;SDS011;30963;48.696;8.764;2022-08-19T00:16:40;18.02;;;16.33;;
45224;SDS011;30963;48.696;8.764;2022-08-19T00:19:07;18.67;;;16.85;;
45224;SDS011;30963;48.696;8.764;2022-08-19T00:21:35;18.50;;;16.63;;
45224;SDS011;30963;48.696;8.764;2022-08-19T00:24:04;20.05;;;18.05;;
45224;SDS011;30963;48.696;8.764;2022-08-19T00:26:30;20.25;;;18.30;;
45224;SDS011;30963;48.696;8.764;2022-08-19T00:28:56;19.10;;;17.38;;
45224;SDS011;30963;48.696;8.764;2022-08-19T00:31:25;18.48;;;16.67;;
45224;SDS011;30963;48.696;8.764;2022-08-19T00:33:52;19.63;;;17.83;;
45224;SDS011;30963;48.696;8.764;2022-08-19T00:36:20;19.63;;;17.65;;
45224;SDS011;30963;48.696;8.764;2022-08-19T00:38:46;20.00;;;18.20;;
45224;SDS011;30963;48.696;8.764;2022-08-19T00:41:14;20.45;;;18.45;;
45224;SDS011;30963;48.696;8.764;2022-08-19T00:43:41;20.48;;;18.58;;
45224;SDS011;30963;48.696;8.764;2022-08-19T00:46:09;19.67;;;17.77;;
45224;SDS011;30963;48.696;8.764;2022-08-19T00:48:35;20.70;;;18.75;;
45224;SDS011;30963;48.696;8.764;2022-08-19T00:51:01;20.42;;;18.33;;
45224;SDS011;30963;48.696;8.764;2022-08-19T00:53:28;21.15;;;19.17;;
45224;SDS011;30963;48.696;8.764;2022-08-19T00:55:56;20.75;;;18.73;;
45224;SDS011;30963;48.696;8.764;2022-08-19T00:58:27;19.15;;;17.20;;
45224;SDS011;30963;48.696;8.764;2022-08-19T01:00:53;18.67;;;16.98;;
45224;SDS011;30963;48.696;8.764;2022-08-19T01:03:20;20.63;;;18.60;;
45224;SDS011;30963;48.696;8.764;2022-08-19T01:05:49;19.95;;;18.15;;
45224;SDS011;30963;48.696;8.764;2022-08-19T01:08:19;19.13;;;17.33;;
45224;SDS011;30963;48.696;8.764;2022-08-19T01:10:49;22.60;;;20.23;;
45224;SDS011;30963;48.696;8.764;2022-08-19T01:13:24;21.23;;;19.17;;
45224;SDS011;30963;48.696;8.764;2022-08-19T01:15:52;20.83;;;18.90;;
45224;SDS011;30963;48.696;8.764;2022-08-19T01:18:21;21.98;;;19.88;;
45224;SDS011;30963;48.696;8.764;2022-08-19T01:20:50;19.95;;;18.02;;
45224;SDS011;30963;48.696;8.764;2022-08-19T01:23:16;20.73;;;18.75;;
45224;SDS011;30963;48.696;8.764;2022-08-19T01:25:47;20.63;;;18.75;;
45224;SDS011;30963;48.696;8.764;2022-08-19T01:28:25;20.85;;;18.77;;
45224;SDS011;30963;48.696;8.764;2022-08-19T01:30:52;20.95;;;18.83;;
45224;SDS011;30963;48.696;8.764;2022-08-19T01:33:19;21.23;;;19.13;;
45224;SDS011;30963;48.696;8.764;2022-08-19T01:35:45;21.55;;;19.42;;
45224;SDS011;30963;48.696;8.764;2022-08-19T01:38:20;23.20;;;20.88;;
45224;SDS011;30963;48.696;8.764;2022-08-19T01:40:46;23.27;;;20.98;;
45224;SDS011;30963;48.696;8.764;2022-08-19T01:43:15;21.20;;;19.15;;
45224;SDS011;30963;48.696;8.764;2022-08-19T01:45:41;21.80;;;19.58;;
45224;SDS011;30963;48.696;8.764;2022-08-19T01:48:09;21.73;;;19.65;;
45224;SDS011;30963;48.696;8.764;2022-08-19T01:50:36;21.45;;;19.35;;
45224;SDS011;30963;48.696;8.764;2022-08-19T01:53:03;21.40;;;19.20;;
45224;SDS011;30963;48.696;8.764;2022-08-19T01:55:30;21.88;;;19.75;;
45224;SDS011;30963;48.696;8.764;2022-08-19T01:57:57;21.77;;;19.67;;
45224;SDS011;30963;48.696;8.764;2022-08-19T02:00:28;22.48;;;20.27;;
45224;SDS011;30963;48.696;8.764;2022-08-19T02:02:55;22.88;;;20.55;;
45224;SDS011;30963;48.696;8.764;2022-08-19T02:05:24;22.17;;;20.15;;
45224;SDS011;30963;48.696;8.764;2022-08-19T02:07:50;22.73;;;20.58;;
45224;SDS011;30963;48.696;8.764;2022-08-19T02:10:19;21.38;;;19.27;;
45224;SDS011;30963;48.696;8.764;2022-08-19T02:12:46;24.20;;;21.70;;
45224;SDS011;30963;48.696;8.764;2022-08-19T02:15:12;21.95;;;19.83;;
45224;SDS011;30963;48.696;8.764;2022-08-19T02:17:39;22.48;;;20.15;;
45224;SDS011;30963;48.696;8.764;2022-08-19T02:20:05;22.10;;;19.88;;
45224;SDS011;30963;48.696;8.764;2022-08-19T02:22:32;21.90;;;19.63;;
45224;SDS011;30963;48.696;8.764;2022-08-19T02:24:58;24.30;;;21.88;;
45224;SDS011;30963;48.696;8.764;2022-08-19T02:27:24;22.50;;;20.20;;
45224;SDS011;30963;48.696;8.764;2022-08-19T02:29:51;23.05;;;20.75;;
45224;SDS011;30963;48.696;8.764;2022-08-19T02:32:18;22.60;;;20.40;;
45224;SDS011;30963;48.696;8.764;2022-08-19T02:34:45;23.58;;;21.27;;
45224;SDS011;30963;48.696;8.764;2022-08-19T02:37:11;22.30;;;20.05;;
45224;SDS011;30963;48.696;8.764;2022-08-19T02:39:57;22.20;;;19.67;;
45224;SDS011;30963;48.696;8.764;2022-08-19T02:42:25;22.77;;;20.48;;
45224;SDS011;30963;48.696;8.764;2022-08-19T02:44:51;24.08;;;21.70;;
45224;SDS011;30963;48.696;8.764;2022-08-19T02:47:17;21.88;;;19.67;;
45224;SDS011;30963;48.696;8.764;2022-08-19T02:49:46;24.65;;;22.25;;
45224;SDS011;30963;48.696;8.764;2022-08-19T02:52:14;24.13;;;21.63;;
45224;SDS011;30963;48.696;8.764;2022-08-19T02:54:43;24.88;;;22.38;;
45224;SDS011;30963;48.696;8.764;2022-08-19T02:57:11;24.83;;;22.45;;
45224;SDS011;30963;48.696;8.764;2022-08-19T02:59:37;24.90;;;22.35;;
45224;SDS011;30963;48.696;8.764;2022-08-19T03:02:06;25.17;;;22.80;;
45224;SDS011;30963;48.696;8.764;2022-08-19T03:04:35;26.30;;;23.70;;
45224;SDS011;30963;48.696;8.764;2022-08-19T03:07:05;25.83;;;23.23;;
45224;SDS011;30963;48.696;8.764;2022-08-19T03:09:35;25.02;;;22.65;;
45224;SDS011;30963;48.696;8.764;2022-08-19T03:12:04;23.95;;;21.55;;
45224;SDS011;30963;48.696;8.764;2022-08-19T03:14:31;24.88;;;22.60;;
45224;SDS011;30963;48.696;8.764;2022-08-19T03:16:57;24.42;;;22.02;;
45224;SDS011;30963;48.696;8.764;2022-08-19T03:19:24;23.33;;;20.98;;
45224;SDS011;30963;48.696;8.764;2022-08-19T03:21:50;24.60;;;22.10;;
45224;SDS011;30963;48.696;8.764;2022-08-19T03:24:17;24.58;;;22.23;;
45224;SDS011;30963;48.696;8.764;2022-08-19T03:26:47;24.60;;;22.27;;
45224;SDS011;30963;48.696;8.764;2022-08-19T03:29:14;26.05;;;23.42;;
45224;SDS011;30963;48.696;8.764;2022-08-19T03:31:43;26.83;;;24.13;;
45224;SDS011;30963;48.696;8.764;2022-08-19T03:34:10;26.70;;;23.98;;
45224;SDS011;30963;48.696;8.764;2022-08-19T03:36:37;26.42;;;23.77;;
45224;SDS011;30963;48.696;8.764;2022-08-19T03:39:03;25.95;;;23.45;;
45224;SDS011;30963;48.696;8.764;2022-08-19T03:41:31;27.20;;;24.50;;
45224;SDS011;30963;48.696;8.764;2022-08-19T03:44:00;29.98;;;27.08;;
45224;SDS011;30963;48.696;8.764;2022-08-19T03:46:29;27.40;;;24.80;;
45224;SDS011;30963;48.696;8.764;2022-08-19T03:48:56;25.73;;;23.42;;
45224;SDS011;30963;48.696;8.764;2022-08-19T03:51:23;26.52;;;23.83;;
45224;SDS011;30963;48.696;8.764;2022-08-19T03:53:50;26.83;;;24.23;;
45224;SDS011;30963;48.696;8.764;2022-08-19T03:56:16;26.63;;;24.08;;
45224;SDS011;30963;48.696;8.764;2022-08-19T03:58:42;27.55;;;24.95;;
45224;SDS011;30963;48.696;8.764;2022-08-19T04:01:12;27.00;;;24.08;;
45224;SDS011;30963;48.696;8.764;2022-08-19T04:03:39;28.23;;;24.98;;
45224;SDS011;30963;48.696;8.764;2022-08-19T04:06:09;26.13;;;23.73;;
45224;SDS011;30963;48.696;8.764;2022-08-19T04:08:35;27.67;;;24.92;;
45224;SDS011;30963;48.696;8.764;2022-08-19T04:11:05;27.92;;;25.13;;
45224;SDS011;30963;48.696;8.764;2022-08-19T04:13:32;27.98;;;25.20;;
45224;SDS011;30963;48.696;8.764;2022-08-19T04:15:59;28.10;;;25.33;;
45224;SDS011;30963;48.696;8.764;2022-08-19T04:18:27;26.38;;;23.83;;
45224;SDS011;30963;48.696;8.764;2022-08-19T04:20:54;27.50;;;24.77;;
45224;SDS011;30963;48.696;8.764;2022-08-19T04:23:23;28.15;;;25.52;;
45224;SDS011;30963;48.696;8.764;2022-08-19T04:25:49;28.83;;;25.90;;
45224;SDS011;30963;48.696;8.764;2022-08-19T04:28:15;28.05;;;25.02;;
45224;SDS011;30963;48.696;8.764;2022-08-19T04:30:43;28.80;;;25.85;;
45224;SDS011;30963;48.696;8.764;2022-08-19T04:33:10;27.15;;;24.25;;
45224;SDS011;30963;48.696;8.764;2022-08-19T04:35:42;28.92;;;25.88;;
45224;SDS011;30963;48.696;8.764;2022-08-19T04:38:08;27.85;;;25.15;;
45224;SDS011;30963;48.696;8.764;2022-08-19T04:40:39;28.70;;;25.77;;
45224;SDS011;30963;48.696;8.764;2022-08-19T04:43:24;28.35;;;25.65;;
45224;SDS011;30963;48.696;8.764;2022-08-19T04:45:50;28.88;;;25.77;;
45224;SDS011;30963;48.696;8.764;2022-08-19T04:48:18;27.63;;;24.80;;
45224;SDS011;30963;48.696;8.764;2022-08-19T04:50:54;27.33;;;24.63;;
45224;SDS011;30963;48.696;8.764;2022-08-19T04:53:33;28.60;;;25.73;;
45224;SDS011;30963;48.696;8.764;2022-08-19T04:56:03;28.35;;;25.33;;
45224;SDS011;30963;48.696;8.764;2022-08-19T04:58:30;29.15;;;26.17;;
45224;SDS011;30963;48.696;8.764;2022-08-19T05:00:58;28.17;;;25.52;;
45224;SDS011;30963;48.696;8.764;2022-08-19T05:03:25;29.42;;;26.45;;
45224;SDS011;30963;48.696;8.764;2022-08-19T05:05:51;27.08;;;24.27;;
45224;SDS011;30963;48.696;8.764;2022-08-19T05:08:19;29.38;;;26.38;;
45224;SDS011;30963;48.696;8.764;2022-08-19T05:10:47;27.90;;;25.17;;
45224;SDS011;30963;48.696;8.764;2022-08-19T05:13:13;26.48;;;23.88;;
45224;SDS011;30963;48.696;8.764;2022-08-19T05:15:40;28.30;;;25.63;;
45224;SDS011;30963;48.696;8.764;2022-08-19T05:18:10;26.75;;;23.90;;
45224;SDS011;30963;48.696;8.764;2022-08-19T05:20:57;30.15;;;26.98;;
45224;SDS011;30963;48.696;8.764;2022-08-19T05:23:42;27.77;;;24.85;;
45224;SDS011;30963;48.696;8.764;2022-08-19T05:26:09;30.35;;;26.67;;
45224;SDS011;30963;48.696;8.764;2022-08-19T05:28:36;28.70;;;25.90;;
45224;SDS011;30963;48.696;8.764;2022-08-19T05:31:02;29.63;;;26.58;;
45224;SDS011;30963;48.696;8.764;2022-08-19T05:33:30;28.52;;;25.67;;
45224;SDS011;30963;48.696;8.764;2022-08-19T05:35:56;29.30;;;26.38;;
45224;SDS011;30963;48.696;8.764;2022-08-19T05:38:22;29.70;;;25.85;;
45224;SDS011;30963;48.696;8.764;2022-08-19T05:40:48;31.35;;;28.00;;
45224;SDS011;30963;48.696;8.764;2022-08-19T05:43:14;29.25;;;26.35;;
45224;SDS011;30963;48.696;8.764;2022-08-19T05:45:43;29.70;;;26.67;;
45224;SDS011;30963;48.696;8.764;2022-08-19T05:48:10;28.55;;;25.60;;
45224;SDS011;30963;48.696;8.764;2022-08-19T05:50:37;30.52;;;27.40;;
45224;SDS011;30963;48.696;8.764;2022-08-19T05:53:03;29.52;;;26.63;;
45224;SDS011;30963;48.696;8.764;2022-08-19T05:55:31;28.52;;;25.83;;
45224;SDS011;30963;48.696;8.764;2022-08-19T05:57:58;30.30;;;27.20;;
45224;SDS011;30963;48.696;8.764;2022-08-19T06:00:24;30.70;;;27.40;;
45224;SDS011;30963;48.696;8.764;2022-08-19T06:02:50;27.52;;;24.80;;
45224;SDS011;30963;48.696;8.764;2022-08-19T06:05:19;29.02;;;26.13;;
45224;SDS011;30963;48.696;8.764;2022-08-19T06:07:45;28.70;;;25.85;;
45224;SDS011;30963;48.696;8.764;2022-08-19T06:10:11;26.95;;;24.35;;
45224;SDS011;30963;48.696;8.764;2022-08-19T06:12:40;29.25;;;26.25;;
45224;SDS011;30963;48.696;8.764;2022-08-19T06:15:10;29.35;;;26.30;;
45224;SDS011;30963;48.696;8.764;2022-08-19T06:17:36;28.70;;;25.83;;
45224;SDS011;30963;48.696;8.764;2022-08-19T06:20:06;29.05;;;26.20;;
45224;SDS011;30963;48.696;8.764;2022-08-19T06:22:36;28.92;;;25.40;;
45224;SDS011;30963;48.696;8.764;2022-08-19T06:25:03;28.65;;;25.77;;
45224;SDS011;30963;48.696;8.764;2022-08-19T06:27:31;29.38;;;26.23;;
45224;SDS011;30963;48.696;8.764;2022-08-19T06:29:58;29.88;;;26.75;;
45224;SDS011;30963;48.696;8.764;2022-08-19T06:32:24;28.98;;;26.15;;
45224;SDS011;30963;48.696;8.764;2022-08-19T06:34:50;28.17;;;25.00;;
45224;SDS011;30963;48.696;8.764;2022-08-19T06:37:16;26.67;;;24.27;;
45224;SDS011;30963;48.696;8.764;2022-08-19T06:39:43;29.23;;;26.23;;
45224;SDS011;30963;48.696;8.764;2022-08-19T06:42:10;27.27;;;24.38;;
45224;SDS011;30963;48.696;8.764;2022-08-19T06:44:39;27.90;;;25.08;;
45224;SDS011;30963;48.696;8.764;2022-08-19T06:47:06;26.25;;;23.55;;
45224;SDS011;30963;48.696;8.764;2022-08-19T06:49:33;26.48;;;23.77;;
45224;SDS011;30963;48.696;8.764;2022-08-19T06:51:59;24.25;;;21.85;;
45224;SDS011;30963;48.696;8.764;2022-08-19T06:54:26;25.30;;;22.80;;
45224;SDS011;30963;48.696;8.764;2022-08-19T06:56:54;26.63;;;23.90;;
45224;SDS011;30963;48.696;8.764;2022-08-19T06:59:21;25.05;;;22.65;;
45224;SDS011;30963;48.696;8.764;2022-08-19T07:01:49;24.75;;;22.30;;
45224;SDS011;30963;48.696;8.764;2022-08-19T07:04:21;24.08;;;21.77;;
45224;SDS011;30963;48.696;8.764;2022-08-19T07:06:48;26.05;;;23.38;;
45224;SDS011;30963;48.696;8.764;2022-08-19T07:09:17;25.20;;;22.70;;
45224;SDS011;30963;48.696;8.764;2022-08-19T07:11:47;23.98;;;21.75;;
45224;SDS011;30963;48.696;8.764;2022-08-19T07:14:14;23.48;;;20.98;;
45224;SDS011;30963;48.696;8.764;2022-08-19T07:16:45;24.90;;;22.38;;
45224;SDS011;30963;48.696;8.764;2022-08-19T07:19:14;24.23;;;21.92;;
45224;SDS011;30963;48.696;8.764;2022-08-19T07:21:42;22.58;;;20.35;;
45224;SDS011;30963;48.696;8.764;2022-08-19T07:24:08;22.73;;;20.45;;
45224;SDS011;30963;48.696;8.764;2022-08-19T07:26:38;23.63;;;21.15;;
45224;SDS011;30963;48.696;8.764;2022-08-19T07:29:04;22.52;;;20.30;;
45224;SDS011;30963;48.696;8.764;2022-08-19T07:31:30;22.23;;;20.15;;
45224;SDS011;30963;48.696;8.764;2022-08-19T07:34:02;21.77;;;19.83;;
45224;SDS011;30963;48.696;8.764;2022-08-19T07:36:31;21.70;;;19.70;;
45224;SDS011;30963;48.696;8.764;2022-08-19T07:38:59;22.42;;;20.30;;
45224;SDS011;30963;48.696;8.764;2022-08-19T07:41:26;22.58;;;20.50;;
45224;SDS011;30963;48.696;8.764;2022-08-19T07:43:53;21.38;;;19.48;;
45224;SDS011;30963;48.696;8.764;2022-08-19T07:46:20;21.88;;;19.88;;
45224;SDS011;30963;48.696;8.764;2022-08-19T07:48:47;21.10;;;19.17;;
45224;SDS011;30963;48.696;8.764;2022-08-19T07:51:15;22.52;;;20.42;;
45224;SDS011;30963;48.696;8.764;2022-08-19T07:53:44;20.98;;;18.98;;
45224;SDS011;30963;48.696;8.764;2022-08-19T07:56:13;21.02;;;18.95;;
45224;SDS011;30963;48.696;8.764;2022-08-19T07:58:40;20.38;;;18.58;;
45224;SDS011;30963;48.696;8.764;2022-08-19T08:01:07;20.48;;;18.48;;
45224;SDS011;30963;48.696;8.764;2022-08-19T08:03:37;18.75;;;17.15;;
45224;SDS011;30963;48.696;8.764;2022-08-19T08:06:22;19.77;;;17.95;;
45224;SDS011;30963;48.696;8.764;2022-08-19T08:09:07;19.50;;;17.60;;
45224;SDS011;30963;48.696;8.764;2022-08-19T08:11:39;17.13;;;15.52;;
45224;SDS011;30963;48.696;8.764;2022-08-19T08:14:07;17.42;;;15.82;;
45224;SDS011;30963;48.696;8.764;2022-08-19T08:16:36;17.77;;;15.95;;
45224;SDS011;30963;48.696;8.764;2022-08-19T08:19:06;18.65;;;16.95;;
45224;SDS011;30963;48.696;8.764;2022-08-19T08:21:34;18.33;;;15.73;;
45224;SDS011;30963;48.696;8.764;2022-08-19T08:24:00;16.80;;;15.40;;
45224;SDS011;30963;48.696;8.764;2022-08-19T08:26:26;16.90;;;15.32;;
45224;SDS011;30963;48.696;8.764;2022-08-19T08:28:53;17.40;;;15.98;;
45224;SDS011;30963;48.696;8.764;2022-08-19T08:31:19;17.85;;;16.25;;
45224;SDS011;30963;48.696;8.764;2022-08-19T08:33:45;19.45;;;16.20;;
45224;SDS011;30963;48.696;8.764;2022-08-19T08:36:12;16.58;;;15.15;;
45224;SDS011;30963;48.696;8.764;2022-08-19T08:38:39;17.15;;;15.43;;
45224;SDS011;30963;48.696;8.764;2022-08-19T08:41:11;18.00;;;16.35;;
45224;SDS011;30963;48.696;8.764;2022-08-19T08:43:44;18.27;;;16.67;;
45224;SDS011;30963;48.696;8.764;2022-08-19T08:46:55;17.40;;;15.98;;
45224;SDS011;30963;48.696;8.764;2022-08-19T08:51:52;17.27;;;15.70;;
45224;SDS011;30963;48.696;8.764;2022-08-19T08:54:23;17.95;;;16.35;;
45224;SDS011;30963;48.696;8.764;2022-08-19T08:56:51;17.55;;;16.15;;
45224;SDS011;30963;48.696;8.764;2022-08-19T08:59:21;16.98;;;15.48;;
45224;SDS011;30963;48.696;8.764;2022-08-19T09:01:47;18.08;;;16.30;;
45224;SDS011;30963;48.696;8.764;2022-08-19T09:04:13;16.98;;;15.55;;
45224;SDS011;30963;48.696;8.764;2022-08-19T09:06:44;17.10;;;15.65;;
45224;SDS011;30963;48.696;8.764;2022-08-19T09:11:48;17.00;;;15.50;;
45224;SDS011;30963;48.696;8.764;2022-08-19T09:16:49;16.73;;;15.32;;
45224;SDS011;30963;48.696;8.764;2022-08-19T09:19:16;16.55;;;15.02;;
45224;SDS011;30963;48.696;8.764;2022-08-19T09:21:43;18.20;;;16.35;;
45224;SDS011;30963;48.696;8.764;2022-08-19T09:24:10;17.35;;;15.93;;
45224;SDS011;30963;48.696;8.764;2022-08-19T09:26:36;18.95;;;17.10;;
45224;SDS011;30963;48.696;8.764;2022-08-19T09:29:04;17.58;;;16.05;;
45224;SDS011;30963;48.696;8.764;2022-08-19T09:31:31;17.52;;;15.73;;
45224;SDS011;30963;48.696;8.764;2022-08-19T09:34:00;19.23;;;17.48;;
45224;SDS011;30963;48.696;8.764;2022-08-19T09:36:29;18.08;;;16.63;;
45224;SDS011;30963;48.696;8.764;2022-08-19T09:38:57;18.63;;;17.08;;
45224;SDS011;30963;48.696;8.764;2022-08-19T09:41:25;18.90;;;17.20;;
45224;SDS011;30963;48.696;8.764;2022-08-19T09:43:52;19.42;;;17.63;;
45224;SDS011;30963;48.696;8.764;2022-08-19T09:46:18;18.45;;;16.55;;
45224;SDS011;30963;48.696;8.764;2022-08-19T09:48:46;18.60;;;17.00;;
45224;SDS011;30963;48.696;8.764;2022-08-19T09:51:19;18.17;;;16.52;;
45224;SDS011;30963;48.696;8.764;2022-08-19T09:53:46;17.17;;;15.68;;
45224;SDS011;30963;48.696;8.764;2022-08-19T09:56:15;16.83;;;15.23;;
45224;SDS011;30963;48.696;8.764;2022-08-19T09:58:42;18.40;;;16.65;;
45224;SDS011;30963;48.696;8.764;2022-08-19T10:01:15;17.65;;;16.08;;
45224;SDS011;30963;48.696;8.764;2022-08-19T10:03:41;17.48;;;15.82;;
45224;SDS011;30963;48.696;8.764;2022-08-19T10:06:09;16.30;;;14.88;;
45224;SDS011;30963;48.696;8.764;2022-08-19T10:08:36;16.52;;;14.85;;
45224;SDS011;30963;48.696;8.764;2022-08-19T10:11:04;16.15;;;14.80;;
45224;SDS011;30963;48.696;8.764;2022-08-19T10:13:31;16.70;;;15.10;;
45224;SDS011;30963;48.696;8.764;2022-08-19T10:16:07;16.80;;;15.25;;
45224;SDS011;30963;48.696;8.764;2022-08-19T10:18:34;16.30;;;14.90;;
45224;SDS011;30963;48.696;8.764;2022-08-19T10:21:05;16.38;;;15.00;;
45224;SDS011;30963;48.696;8.764;2022-08-19T10:23:36;16.20;;;14.65;;
45224;SDS011;30963;48.696;8.764;2022-08-19T10:26:05;15.93;;;14.55;;
45224;SDS011;30963;48.696;8.764;2022-08-19T10:28:35;15.63;;;14.18;;
45224;SDS011;30963;48.696;8.764;2022-08-19T10:31:09;15.55;;;14.35;;
45224;SDS011;30963;48.696;8.764;2022-08-19T10:33:36;15.45;;;13.95;;
45224;SDS011;30963;48.696;8.764;2022-08-19T10:36:10;15.20;;;13.75;;
45224;SDS011;30963;48.696;8.764;2022-08-19T10:38:37;13.93;;;12.63;;
45224;SDS011;30963;48.696;8.764;2022-08-19T10:41:22;13.88;;;12.63;;
45224;SDS011;30963;48.696;8.764;2022-08-19T10:43:54;13.15;;;12.02;;
45224;SDS011;30963;48.696;8.764;2022-08-19T10:46:22;13.30;;;12.13;;
45224;SDS011;30963;48.696;8.764;2022-08-19T10:48:49;12.30;;;11.25;;
45224;SDS011;30963;48.696;8.764;2022-08-19T10:51:17;12.88;;;11.77;;
45224;SDS011;30963;48.696;8.764;2022-08-19T10:54:02;12.07;;;10.85;;
45224;SDS011;30963;48.696;8.764;2022-08-19T10:56:28;11.18;;;10.15;;
45224;SDS011;30963;48.696;8.764;2022-08-19T10:59:13;12.65;;;11.38;;
45224;SDS011;30963;48.696;8.764;2022-08-19T11:01:43;11.77;;;10.77;;
45224;SDS011;30963;48.696;8.764;2022-08-19T11:04:09;12.02;;;11.00;;
45224;SDS011;30963;48.696;8.764;2022-08-19T11:06:38;11.63;;;10.68;;
45224;SDS011;30963;48.696;8.764;2022-08-19T11:09:08;10.95;;;10.02;;
45224;SDS011;30963;48.696;8.764;2022-08-19T11:11:36;10.40;;;9.60;;
45224;SDS011;30963;48.696;8.764;2022-08-19T11:14:05;9.85;;;9.05;;
45224;SDS011;30963;48.696;8.764;2022-08-19T11:16:31;10.15;;;9.15;;
45224;SDS011;30963;48.696;8.764;2022-08-19T11:19:00;10.70;;;9.88;;
45224;SDS011;30963;48.696;8.764;2022-08-19T11:21:30;10.82;;;9.73;;
45224;SDS011;30963;48.696;8.764;2022-08-19T11:23:58;10.13;;;9.30;;
45224;SDS011;30963;48.696;8.764;2022-08-19T11:26:25;10.95;;;10.00;;
45224;SDS011;30963;48.696;8.764;2022-08-19T11:28:51;11.57;;;10.48;;
45224;SDS011;30963;48.696;8.764;2022-08-19T11:31:19;10.82;;;9.90;;
45224;SDS011;30963;48.696;8.764;2022-08-19T11:33:48;9.95;;;9.15;;
45224;SDS011;30963;48.696;8.764;2022-08-19T11:36:18;10.02;;;9.10;;
45224;SDS011;30963;48.696;8.764;2022-08-19T11:38:45;11.10;;;9.98;;
45224;SDS011;30963;48.696;8.764;2022-08-19T11:41:13;11.52;;;10.52;;
45224;SDS011;30963;48.696;8.764;2022-08-19T11:43:40;11.20;;;10.40;;
45224;SDS011;30963;48.696;8.764;2022-08-19T11:46:07;9.90;;;8.75;;
45224;SDS011;30963;48.696;8.764;2022-08-19T11:48:35;9.20;;;8.40;;
45224;SDS011;30963;48.696;8.764;2022-08-19T11:51:03;9.65;;;8.82;;
45224;SDS011;30963;48.696;8.764;2022-08-19T11:53:31;9.80;;;9.10;;
45224;SDS011;30963;48.696;8.764;2022-08-19T11:55:57;8.95;;;8.25;;
45224;SDS011;30963;48.696;8.764;2022-08-19T11:58:24;8.77;;;7.97;;
45224;SDS011;30963;48.696;8.764;2022-08-19T12:00:54;9.38;;;8.57;;
45224;SDS011;30963;48.696;8.764;2022-08-19T12:03:20;9.35;;;8.65;;
45224;SDS011;30963;48.696;8.764;2022-08-19T12:05:46;9.25;;;8.45;;
45224;SDS011;30963;48.696;8.764;2022-08-19T12:08:14;9.10;;;8.30;;
45224;SDS011;30963;48.696;8.764;2022-08-19T12:10:40;8.88;;;8.18;;
45224;SDS011;30963;48.696;8.764;2022-08-19T12:13:07;8.95;;;8.05;;
45224;SDS011;30963;48.696;8.764;2022-08-19T12:15:36;8.40;;;7.60;;
45224;SDS011;30963;48.696;8.764;2022-08-19T12:18:06;8.60;;;7.90;;
45224;SDS011;30963;48.696;8.764;2022-08-19T12:20:34;8.70;;;7.93;;
45224;SDS011;30963;48.696;8.764;2022-08-19T12:23:02;9.18;;;8.48;;
45224;SDS011;30963;48.696;8.764;2022-08-19T12:25:29;8.38;;;7.57;;
45224;SDS011;30963;48.696;8.764;2022-08-19T12:27:55;8.82;;;8.18;;
45224;SDS011;30963;48.696;8.764;2022-08-19T12:30:21;8.85;;;8.02;;
45224;SDS011;30963;48.696;8.764;2022-08-19T12:32:47;8.25;;;7.45;;
45224;SDS011;30963;48.696;8.764;2022-08-19T12:35:13;9.23;;;8.43;;
45224;SDS011;30963;48.696;8.764;2022-08-19T12:37:42;9.00;;;8.23;;
45224;SDS011;30963;48.696;8.764;2022-08-19T12:40:10;8.93;;;8.25;;
45224;SDS011;30963;48.696;8.764;2022-08-19T12:42:39;9.05;;;8.25;;
45224;SDS011;30963;48.696;8.764;2022-08-19T12:45:07;9.18;;;8.27;;
45224;SDS011;30963;48.696;8.764;2022-08-19T12:47:33;9.65;;;8.85;;
45224;SDS011;30963;48.696;8.764;2022-08-19T12:49:59;9.65;;;8.88;;
45224;SDS011;30963;48.696;8.764;2022-08-19T12:52:28;10.20;;;9.50;;
45224;SDS011;30963;48.696;8.764;2022-08-19T12:54:54;11.00;;;9.90;;
45224;SDS011;30963;48.696;8.764;2022-08-19T12:57:24;10.65;;;9.27;;
45224;SDS011;30963;48.696;8.764;2022-08-19T12:59:54;9.45;;;8.75;;
45224;SDS011;30963;48.696;8.764;2022-08-19T13:02:20;10.80;;;9.75;;
45224;SDS011;30963;48.696;8.764;2022-08-19T13:04:47;10.52;;;9.63;;
45224;SDS011;30963;48.696;8.764;2022-08-19T13:07:13;10.20;;;9.48;;
45224;SDS011;30963;48.696;8.764;2022-08-19T13:09:39;10.32;;;9.52;;
45224;SDS011;30963;48.696;8.764;2022-08-19T13:12:09;10.45;;;9.75;;
45224;SDS011;30963;48.696;8.764;2022-08-19T13:14:38;10.20;;;9.30;;
45224;SDS011;30963;48.696;8.764;2022-08-19T13:17:07;11.00;;;10.05;;
45224;SDS011;30963;48.696;8.764;2022-08-19T13:19:35;10.57;;;9.63;;
45224;SDS011;30963;48.696;8.764;2022-08-19T13:22:01;10.60;;;9.70;;
45224;SDS011;30963;48.696;8.764;2022-08-19T13:24:27;11.15;;;10.02;;
45224;SDS011;30963;48.696;8.764;2022-08-19T13:26:53;10.70;;;10.00;;
45224;SDS011;30963;48.696;8.764;2022-08-19T13:29:19;10.18;;;9.48;;
45224;SDS011;30963;48.696;8.764;2022-08-19T13:32:04;10.52;;;9.73;;
45224;SDS011;30963;48.696;8.764;2022-08-19T13:34:48;9.82;;;9.02;;
45224;SDS011;30963;48.696;8.764;2022-08-19T13:37:14;10.20;;;9.60;;
45224;SDS011;30963;48.696;8.764;2022-08-19T13:39:40;10.82;;;10.02;;
45224;SDS011;30963;48.696;8.764;2022-08-19T13:42:09;11.00;;;10.02;;
45224;SDS011;30963;48.696;8.764;2022-08-19T13:44:38;10.85;;;9.95;;
45224;SDS011;30963;48.696;8.764;2022-08-19T13:47:04;11.60;;;10.55;;
45224;SDS011;30963;48.696;8.764;2022-08-19T13:49:31;10.40;;;9.63;;
45224;SDS011;30963;48.696;8.764;2022-08-19T13:51:57;10.60;;;9.80;;
45224;SDS011;30963;48.696;8.764;2022-08-19T13:54:26;10.80;;;10.05;;
45224;SDS011;30963;48.696;8.764;2022-08-19T13:56:52;11.77;;;10.88;;
45224;SDS011;30963;48.696;8.764;2022-08-19T13:59:18;11.27;;;10.45;;
45224;SDS011;30963;48.696;8.764;2022-08-19T14:01:46;11.20;;;10.32;;
45224;SDS011;30963;48.696;8.764;2022-08-19T14:04:12;11.45;;;10.65;;
45224;SDS011;30963;48.696;8.764;2022-08-19T14:06:38;10.95;;;10.15;;
45224;SDS011;30963;48.696;8.764;2022-08-19T14:09:04;11.55;;;10.55;;
45224;SDS011;30963;48.696;8.764;2022-08-19T14:11:30;11.98;;;10.93;;
45224;SDS011;30963;48.696;8.764;2022-08-19T14:13:59;11.07;;;10.27;;
45224;SDS011;30963;48.696;8.764;2022-08-19T14:16:25;12.07;;;11.18;;
45224;SDS011;30963;48.696;8.764;2022-08-19T14:18:52;10.98;;;10.27;;
45224;SDS011;30963;48.696;8.764;2022-08-19T14:21:21;11.07;;;10.27;;
45224;SDS011;30963;48.696;8.764;2022-08-19T14:23:48;11.30;;;10.48;;
45224;SDS011;30963;48.696;8.764;2022-08-19T14:26:15;11.18;;;10.38;;
45224;SDS011;30963;48.696;8.764;2022-08-19T14:28:42;11.05;;;10.18;;
45224;SDS011;30963;48.696;8.764;2022-08-19T14:31:12;10.63;;;9.80;;
45224;SDS011;30963;48.696;8.764;2022-08-19T14:33:41;11.27;;;10.10;;
45224;SDS011;30963;48.696;8.764;2022-08-19T14:36:07;10.70;;;9.90;;
45224;SDS011;30963;48.696;8.764;2022-08-19T14:38:36;10.85;;;10.05;;
45224;SDS011;30963;48.696;8.764;2022-08-19T14:41:22;12.07;;;11.07;;